Time;durP1;ratioP1;P1;durP2;ratioP2;P2;SDS_P1;SDS_P2;PMS_P1;PMS_P2;Temp;Humidity;BMP_temperature;BMP_pressure;BME280_temperature;BME280_humidity;BME280_pressure;Samples;Min_cycle;Max_cycle;Signal;HPM_P1;HPM_P2
2023/03/22 00:00:41;;;;;;;4.5;1.8;;;;;;;;;;;;;
2023/03/22 00:03:11;;;;;;;2.7;1.7;;;;;;;;;;;;;
2023/03/22 00:05:36;;;;;;;2.7;1.9;;;;;;;;;;;;;
2023/03/22 00:08:04;;;;;;;2.9;1.5;;;;;;;;;;;;;
2023/03/22 00:10:26;;;;;;;3.7;2;;;;;;;;;;;;;
2023/03/22 00:12:51;;;;;;;5.8;2.1;;;;;;;;;;;;;
2023/03/22 00:15:25;;;;;;;8.3;3.5;;;;;;;;;;;;;
2023/03/22 00:17:50;;;;;;;2.3;1.6;;;;;;;;;;;;;
2023/03/22 00:20:16;;;;;;;2;1.4;;;;;;;;;;;;;
2023/03/22 00:22:50;;;;;;;13.5;5.3;;;;;;;;;;;;;
2023/03/22 00:25:19;;;;;;;111.2;37.3;;;;;;;;;;;;;
2023/03/22 00:27:47;;;;;;;2.4;1.8;;;;;;;;;;;;;
2023/03/22 00:30:16;;;;;;;1.9;1.4;;;;;;;;;;;;;
2023/03/22 00:32:49;;;;;;;2.9;1.2;;;;;;;;;;;;;
2023/03/22 00:35:15;;;;;;;60.3;19.6;;;;;;;;;;;;;
2023/03/22 00:37:40;;;;;;;82.7;28.8;;;;;;;;;;;;;
2023/03/22 00:40:08;;;;;;;3.3;1.9;;;;;;;;;;;;;
2023/03/22 00:42:32;;;;;;;7.5;4.2;;;;;;;;;;;;;
2023/03/22 00:44:59;;;;;;;4.2;1.8;;;;;;;;;;;;;
2023/03/22 00:47:24;;;;;;;1.8;1.5;;;;;;;;;;;;;
2023/03/22 00:49:51;;;;;;;3;2.1;;;;;;;;;;;;;
2023/03/22 00:52:17;;;;;;;4.8;2.4;;;;;;;;;;;;;
2023/03/22 00:54:42;;;;;;;3.9;2.3;;;;;;;;;;;;;
2023/03/22 00:57:08;;;;;;;2.9;2.1;;;;;;;;;;;;;
2023/03/22 00:59:51;;;;;;;4.3;2.8;;;;;;;;;;;;;
2023/03/22 01:01:58;;;;;;;2.9;1.6;;;;;;;;;;;;;
2023/03/22 01:04:24;;;;;;;2.5;1.9;;;;;;;;;;;;;
2023/03/22 01:06:50;;;;;;;2.2;1.6;;;;;;;;;;;;;
2023/03/22 01:09:15;;;;;;;3.1;1.8;;;;;;;;;;;;;
2023/03/22 01:11:41;;;;;;;2.2;1.3;;;;;;;;;;;;;
2023/03/22 01:14:08;;;;;;;1.3;1.2;;;;;;;;;;;;;
2023/03/22 01:16:34;;;;;;;1.6;1.2;;;;;;;;;;;;;
2023/03/22 01:19:00;;;;;;;1.3;1.2;;;;;;;;;;;;;
2023/03/22 01:21:24;;;;;;;2.1;1.4;;;;;;;;;;;;;
2023/03/22 01:23:49;;;;;;;2.1;1.7;;;;;;;;;;;;;
2023/03/22 01:26:15;;;;;;;2.3;1.3;;;;;;;;;;;;;
2023/03/22 01:28:40;;;;;;;2.6;1.6;;;;;;;;;;;;;
2023/03/22 01:31:08;;;;;;;3.5;2.4;;;;;;;;;;;;;
2023/03/22 01:33:34;;;;;;;2.6;1.6;;;;;;;;;;;;;
2023/03/22 01:35:59;;;;;;;2.4;1.8;;;;;;;;;;;;;
2023/03/22 01:38:24;;;;;;;3.3;1.4;;;;;;;;;;;;;
2023/03/22 01:40:50;;;;;;;2.3;1.6;;;;;;;;;;;;;
2023/03/22 01:43:15;;;;;;;4;2.3;;;;;;;;;;;;;
2023/03/22 01:45:45;;;;;;;1.6;1.5;;;;;;;;;;;;;
2023/03/22 01:48:10;;;;;;;2.5;1.6;;;;;;;;;;;;;
2023/03/22 01:50:36;;;;;;;3.3;1.7;;;;;;;;;;;;;
2023/03/22 01:53:03;;;;;;;2.7;1.4;;;;;;;;;;;;;
2023/03/22 01:55:26;;;;;;;3.1;1.3;;;;;;;;;;;;;
2023/03/22 01:57:51;;;;;;;4.5;3;;;;;;;;;;;;;
2023/03/22 02:00:17;;;;;;;6.1;3.1;;;;;;;;;;;;;
2023/03/22 02:02:43;;;;;;;2;1.4;;;;;;;;;;;;;
2023/03/22 02:05:08;;;;;;;2;1.3;;;;;;;;;;;;;
2023/03/22 02:07:33;;;;;;;2;1.8;;;;;;;;;;;;;
2023/03/22 02:09:58;;;;;;;2.5;1.2;;;;;;;;;;;;;
2023/03/22 02:12:24;;;;;;;3.4;1.3;;;;;;;;;;;;;
2023/03/22 02:14:49;;;;;;;2.7;1.2;;;;;;;;;;;;;
2023/03/22 02:17:14;;;;;;;3.3;1.5;;;;;;;;;;;;;
2023/03/22 02:19:41;;;;;;;2.6;1.3;;;;;;;;;;;;;
2023/03/22 02:22:05;;;;;;;1.3;1.2;;;;;;;;;;;;;
2023/03/22 02:25:11;;;;;;;1.8;1.4;;;;;;;;;;;;;
2023/03/22 02:27:36;;;;;;;3.6;1.5;;;;;;;;;;;;;
2023/03/22 02:30:01;;;;;;;4.6;1.8;;;;;;;;;;;;;
2023/03/22 02:32:26;;;;;;;3.1;1.6;;;;;;;;;;;;;
2023/03/22 02:34:52;;;;;;;3;1.6;;;;;;;;;;;;;
2023/03/22 02:37:42;;;;;;;2.1;1.4;;;;;;;;;;;;;
2023/03/22 02:40:10;;;;;;;2.6;1.4;;;;;;;;;;;;;
2023/03/22 02:42:35;;;;;;;2.5;1.5;;;;;;;;;;;;;
2023/03/22 02:45:03;;;;;;;1.2;1.1;;;;;;;;;;;;;
2023/03/22 02:47:28;;;;;;;1.2;1;;;;;;;;;;;;;
2023/03/22 02:49:56;;;;;;;2.5;1.5;;;;;;;;;;;;;
2023/03/22 02:52:21;;;;;;;2;1.4;;;;;;;;;;;;;
2023/03/22 02:54:46;;;;;;;1.6;1.2;;;;;;;;;;;;;
2023/03/22 02:57:11;;;;;;;2.3;1.1;;;;;;;;;;;;;
2023/03/22 02:59:37;;;;;;;1.6;1.3;;;;;;;;;;;;;
2023/03/22 03:02:03;;;;;;;1.9;1.4;;;;;;;;;;;;;
2023/03/22 03:04:28;;;;;;;2.3;1.3;;;;;;;;;;;;;
2023/03/22 03:06:55;;;;;;;1.5;1.4;;;;;;;;;;;;;
2023/03/22 03:09:20;;;;;;;2.4;1.3;;;;;;;;;;;;;
2023/03/22 03:11:45;;;;;;;1.9;1.5;;;;;;;;;;;;;
2023/03/22 03:14:11;;;;;;;3.1;1.5;;;;;;;;;;;;;
2023/03/22 03:16:35;;;;;;;2.5;1.2;;;;;;;;;;;;;
2023/03/22 03:19:01;;;;;;;3.1;1.3;;;;;;;;;;;;;
2023/03/22 03:21:29;;;;;;;1.6;1.3;;;;;;;;;;;;;
2023/03/22 03:23:52;;;;;;;1.4;1.3;;;;;;;;;;;;;
2023/03/22 03:26:17;;;;;;;2;1.3;;;;;;;;;;;;;
2023/03/22 03:28:43;;;;;;;1.4;1.1;;;;;;;;;;;;;
2023/03/22 03:31:08;;;;;;;2.1;1.3;;;;;;;;;;;;;
2023/03/22 03:33:34;;;;;;;2.4;1.3;;;;;;;;;;;;;
2023/03/22 03:35:59;;;;;;;1.5;1.3;;;;;;;;;;;;;
2023/03/22 03:38:24;;;;;;;4.3;1.7;;;;;;;;;;;;;
2023/03/22 03:40:49;;;;;;;2.4;1.5;;;;;;;;;;;;;
2023/03/22 03:43:15;;;;;;;1.4;1.3;;;;;;;;;;;;;
2023/03/22 03:45:40;;;;;;;3.2;1.9;;;;;;;;;;;;;
2023/03/22 03:48:08;;;;;;;3.1;1.6;;;;;;;;;;;;;
2023/03/22 03:50:33;;;;;;;3.3;1.4;;;;;;;;;;;;;
2023/03/22 03:52:58;;;;;;;2;1.3;;;;;;;;;;;;;
2023/03/22 03:55:23;;;;;;;1.6;1.1;;;;;;;;;;;;;
2023/03/22 03:57:50;;;;;;;3.3;1.4;;;;;;;;;;;;;
2023/03/22 04:02:44;;;;;;;4.8;2.4;;;;;;;6.53;83.44824;935.8959;;;;
2023/03/22 04:05:19;;;;;;;2.6;1.3;;;;;;;6.49;83.42969;935.8649;;;;
2023/03/22 04:07:44;;;;;;;1.8;1.1;;;;;;;6.45;83.46484;935.8869;;;;
2023/03/22 04:10:13;;;;;;;2;1.3;;;;;;;6.4;84.03418;935.9276;;;;
2023/03/22 04:12:47;;;;;;;2.4;1.5;;;;;;;6.38;84.43555;935.9611;;;;
2023/03/22 04:15:22;;;;;;;1.9;1.1;;;;;;;6.29;84.06738;935.9467;;;;
2023/03/22 04:17:53;;;;;;;1.9;1.5;;;;;;;6.18;84.66797;935.9692;;;;
2023/03/22 04:20:18;;;;;;;1.4;1.2;;;;;;;6.15;84.97949;935.9986;;;;
2023/03/22 04:22:47;;;;;;;1.5;1.1;;;;;;;6.16;84.73047;936.0287;;;;
2023/03/22 04:25:11;;;;;;;2.3;1.7;;;;;;;5.81;86.93262;936.0472;;;;
2023/03/22 04:27:40;;;;;;;6.9;2.6;;;;;;;5.88;87.12598;936.0977;;;;
2023/03/22 04:30:05;;;;;;;5;2.5;;;;;;;5.84;87.44824;936.0842;;;;
2023/03/22 04:32:30;;;;;;;4.4;2.4;;;;;;;5.85;87.37988;936.0789;;;;
2023/03/22 04:35:00;;;;;;;3;2.1;;;;;;;5.91;86.83008;935.978;;;;
2023/03/22 04:37:26;;;;;;;3.2;2.1;;;;;;;5.84;86.5332;936.1221;;;;
2023/03/22 04:39:54;;;;;;;2.7;2.1;;;;;;;5.68;87.08789;936.0667;;;;
2023/03/22 04:42:19;;;;;;;2.6;1.8;;;;;;;5.54;87.54297;936.1127;;;;
2023/03/22 04:44:49;;;;;;;2.2;1.7;;;;;;;5.4;88.30566;936.1082;;;;
2023/03/22 04:47:18;;;;;;;4.5;1.6;;;;;;;5.63;86.82813;936.0789;;;;
2023/03/22 04:49:43;;;;;;;1.6;1.5;;;;;;;5.52;87.74316;936.0144;;;;
2023/03/22 04:52:11;;;;;;;1.8;1.4;;;;;;;5.71;86.26855;936.0223;;;;
2023/03/22 04:54:36;;;;;;;1.6;1.4;;;;;;;5.53;86.54688;936.0097;;;;
2023/03/22 04:57:01;;;;;;;2.2;1.3;;;;;;;5.21;87.89258;936.0561;;;;
2023/03/22 04:59:29;;;;;;;1.5;1.4;;;;;;;5.15;88.56836;936.077;;;;
2023/03/22 05:01:56;;;;;;;2.4;1.3;;;;;;;5.21;88.35449;936.0331;;;;
2023/03/22 05:04:27;;;;;;;2.5;1.5;;;;;;;5.14;88.63477;936.043;;;;
2023/03/22 05:06:57;;;;;;;2.1;1.3;;;;;;;5.13;88.35059;936.0411;;;;
2023/03/22 05:09:23;;;;;;;3.2;1.5;;;;;;;5.25;87.70996;935.9142;;;;
2023/03/22 05:11:49;;;;;;;1.8;1.4;;;;;;;5.33;86.13574;935.9154;;;;
2023/03/22 05:14:14;;;;;;;2.3;1.4;;;;;;;5.3;86.93164;935.9763;;;;
2023/03/22 05:16:42;;;;;;;6.6;4;;;;;;;5.3;86.78418;935.9353;;;;
2023/03/22 05:19:12;;;;;;;4.7;3.3;;;;;;;5.25;87.36035;935.8929;;;;
2023/03/22 05:21:35;;;;;;;4.7;2.6;;;;;;;5.23;87.76074;935.9752;;;;
2023/03/22 05:24:02;;;;;;;4.1;2.2;;;;;;;5.29;87.62695;936.0067;;;;
2023/03/22 05:26:27;;;;;;;3.4;1.7;;;;;;;5.36;87.22461;936.0219;;;;
2023/03/22 05:28:57;;;;;;;8.2;3;;;;;;;5.37;86.95508;936.0411;;;;
2023/03/22 05:31:22;;;;;;;8.1;2.4;;;;;;;5.44;86.6543;936.0723;;;;
2023/03/22 05:33:50;;;;;;;4.4;2.6;;;;;;;5.41;86.54492;936.0203;;;;
2023/03/22 05:36:15;;;;;;;3.7;2;;;;;;;5.44;86.19141;935.9903;;;;
2023/03/22 05:38:46;;;;;;;3.4;2.1;;;;;;;5.51;85.96875;936.0109;;;;
2023/03/22 05:41:15;;;;;;;5.1;2.9;;;;;;;5.42;85.83789;936.0514;;;;
2023/03/22 05:43:40;;;;;;;5.7;2;;;;;;;5.24;86.79297;936.0457;;;;
2023/03/22 05:46:08;;;;;;;2.7;1.9;;;;;;;5.38;86.80078;936.0129;;;;
2023/03/22 05:48:34;;;;;;;3.2;2.3;;;;;;;5.38;86.64355;936.0139;;;;
2023/03/22 05:51:03;;;;;;;3.8;1.9;;;;;;;5.68;85.64258;935.9933;;;;
2023/03/22 05:53:28;;;;;;;2.8;1.7;;;;;;;5.81;84.68555;936.0598;;;;
2023/03/22 05:55:56;;;;;;;1.9;1.4;;;;;;;5.73;84.5791;935.9778;;;;
2023/03/22 05:58:21;;;;;;;3;1.4;;;;;;;6.22;84.76758;935.8985;;;;
2023/03/22 06:00:50;;;;;;;2.9;1;;;;;;;7.69;76.75293;935.918;;;;
2023/03/22 06:03:14;;;;;;;3;1.1;;;;;;;8.69;72.0918;935.9827;;;;
2023/03/22 06:05:38;;;;;;;4.1;1.6;;;;;;;9.05;69.31738;935.9152;;;;
2023/03/22 06:08:07;;;;;;;4.8;1.8;;;;;;;9.52;67.51172;935.8736;;;;
2023/03/22 06:10:32;;;;;;;4.2;2.2;;;;;;;9.74;66.28223;935.9156;;;;
2023/03/22 06:12:59;;;;;;;2.1;1.7;;;;;;;9.99;65.2832;935.8798;;;;
2023/03/22 06:15:25;;;;;;;3.6;2;;;;;;;10.77;63.8584;935.8892;;;;
2023/03/22 06:17:50;;;;;;;3.6;2.3;;;;;;;11.28;61.29297;935.8744;;;;
2023/03/22 06:20:18;;;;;;;2.4;1.7;;;;;;;10.83;62.2002;935.8809;;;;
2023/03/22 06:22:48;;;;;;;3;1.9;;;;;;;10.48;62.90234;935.8811;;;;
2023/03/22 06:25:14;;;;;;;2.1;1.5;;;;;;;10.18;63.95508;935.9022;;;;
2023/03/22 06:27:42;;;;;;;5.3;1.5;;;;;;;10.95;62.00098;935.8306;;;;
2023/03/22 06:30:07;;;;;;;3.1;1.5;;;;;;;11.37;60.73242;935.8069;;;;
2023/03/22 06:32:35;;;;;;;2.5;1.3;;;;;;;12.56;57.05762;935.8848;;;;
2023/03/22 06:35:00;;;;;;;1.8;1.1;;;;;;;13.1;55.0957;935.8631;;;;
2023/03/22 06:37:30;;;;;;;3.8;1.8;;;;;;;12.74;54.31445;935.8783;;;;
2023/03/22 06:40:01;;;;;;;2.1;1.4;;;;;;;13.35;53.03418;935.8914;;;;
2023/03/22 06:42:32;;;;;;;2.6;1.6;;;;;;;13.24;54.07813;935.908;;;;
2023/03/22 06:45:01;;;;;;;2.8;1.3;;;;;;;13.74;52.93262;935.8848;;;;
2023/03/22 06:47:25;;;;;;;2.6;1.3;;;;;;;14.4;51.06738;935.895;;;;
2023/03/22 06:49:53;;;;;;;1.5;1.2;;;;;;;15.49;48.33008;935.8239;;;;
2023/03/22 06:52:19;;;;;;;2.6;1.3;;;;;;;15.58;47.7627;935.8314;;;;
2023/03/22 06:54:46;;;;;;;3.3;2.1;;;;;;;15.56;47.96777;935.9;;;;
2023/03/22 06:57:12;;;;;;;3.1;1.9;;;;;;;15.78;47.56445;935.9039;;;;
2023/03/22 06:59:38;;;;;;;2.6;1.9;;;;;;;15.44;46.83594;935.8734;;;;
2023/03/22 07:02:03;;;;;;;4.5;3;;;;;;;15.23;47.62012;935.8654;;;;
2023/03/22 07:04:34;;;;;;;3.8;1.8;;;;;;;14.99;48.73633;935.8412;;;;
2023/03/22 07:06:59;;;;;;;1.7;1.3;;;;;;;15.23;48.09277;935.8278;;;;
2023/03/22 07:09:26;;;;;;;3.2;1.2;;;;;;;15.11;48.70313;935.8401;;;;
2023/03/22 07:11:50;;;;;;;1.9;1.3;;;;;;;15.35;47.84082;935.8566;;;;
2023/03/22 07:14:17;;;;;;;3.6;1.6;;;;;;;15.01;47.3877;935.8762;;;;
2023/03/22 07:16:42;;;;;;;3.6;1.2;;;;;;;14.37;48.93164;935.8953;;;;
2023/03/22 07:19:12;;;;;;;1.9;1.3;;;;;;;14.21;48.98242;935.9075;;;;
2023/03/22 07:21:37;;;;;;;2.6;1.3;;;;;;;15.61;46.35645;935.8666;;;;
2023/03/22 07:24:05;;;;;;;2.8;2.4;;;;;;;14.73;48.32715;935.8222;;;;
2023/03/22 07:26:29;;;;;;;3.1;1.9;;;;;;;16.24;44.65332;935.7885;;;;
2023/03/22 07:28:55;;;;;;;3.2;1.4;;;;;;;15.91;44.24902;935.7747;;;;
2023/03/22 07:31:21;;;;;;;1.9;1.3;;;;;;;16.34;43.7373;935.7386;;;;
2023/03/22 07:33:47;;;;;;;25.9;12;;;;;;;16.4;43.28125;935.772;;;;
2023/03/22 07:36:11;;;;;;;3;1.2;;;;;;;15.32;44.90527;935.801;;;;
2023/03/22 07:38:38;;;;;;;0.9;0.8;;;;;;;15.57;45.78613;935.7737;;;;
2023/03/22 07:41:03;;;;;;;1.6;0.7;;;;;;;15.82;44.15918;935.7816;;;;
2023/03/22 07:43:31;;;;;;;1.7;0.9;;;;;;;15.93;45.52344;935.7366;;;;
2023/03/22 07:45:56;;;;;;;0.6;0.6;;;;;;;16.78;44.2793;935.7769;;;;
2023/03/22 07:48:23;;;;;;;0.6;0.6;;;;;;;17.58;43.27051;935.6895;;;;
2023/03/22 07:50:48;;;;;;;2.1;0.7;;;;;;;18.69;41.30762;935.5696;;;;
2023/03/22 07:53:17;;;;;;;2.3;1;;;;;;;18.83;40.36719;935.5944;;;;
2023/03/22 07:55:42;;;;;;;2;1.1;;;;;;;19.25;38.55371;935.5908;;;;
2023/03/22 07:58:10;;;;;;;1.3;0.7;;;;;;;18.85;39.58887;935.6664;;;;
2023/03/22 08:00:35;;;;;;;1.6;0.9;;;;;;;19.8;38.13477;935.633;;;;
2023/03/22 08:03:04;;;;;;;1.4;0.8;;;;;;;20.31;37.58398;935.6347;;;;
2023/03/22 08:05:37;;;;;;;2;0.8;;;;;;;19.92;37.03809;935.6359;;;;
2023/03/22 08:08:03;;;;;;;0.8;0.8;;;;;;;20.86;35.80664;935.5652;;;;
2023/03/22 08:10:28;;;;;;;1.4;0.8;;;;;;;21.78;34.31152;935.5544;;;;
2023/03/22 08:12:57;;;;;;;3;1;;;;;;;22.63;32.76953;935.4874;;;;
2023/03/22 08:15:22;;;;;;;1.5;0.8;;;;;;;20.97;34.30762;935.5886;;;;
2023/03/22 08:17:51;;;;;;;0.9;0.7;;;;;;;20.88;34.98926;935.5862;;;;
2023/03/22 08:20:21;;;;;;;2.4;0.8;;;;;;;21.92;32.49414;935.4704;;;;
2023/03/22 08:22:47;;;;;;;1.2;0.9;;;;;;;21.15;34.30957;935.4425;;;;
2023/03/22 08:25:13;;;;;;;0.8;0.8;;;;;;;21.48;34.14844;935.4614;;;;
2023/03/22 08:27:40;;;;;;;1.3;0.8;;;;;;;21.65;32.65039;935.4228;;;;
2023/03/22 08:30:05;;;;;;;1.5;0.9;;;;;;;20.81;33.93262;935.4264;;;;
2023/03/22 08:32:33;;;;;;;1.4;0.7;;;;;;;20.89;33.1084;935.381;;;;
2023/03/22 08:35:03;;;;;;;1.5;0.9;;;;;;;20.38;33.35059;935.3221;;;;
2023/03/22 08:37:29;;;;;;;1.7;0.9;;;;;;;20.3;34.0918;935.272;;;;
2023/03/22 08:39:55;;;;;;;1.1;0.7;;;;;;;21.48;32.18164;935.2369;;;;
2023/03/22 08:42:20;;;;;;;1.9;0.7;;;;;;;22.64;31.05664;935.1133;;;;
2023/03/22 08:44:50;;;;;;;1.2;0.7;;;;;;;24.73;28.24219;935.2151;;;;
2023/03/22 08:47:14;;;;;;;0.8;0.7;;;;;;;24.37;27.91406;935.2012;;;;
2023/03/22 08:49:42;;;;;;;1.6;0.7;;;;;;;25.17;28.09375;935.1827;;;;
2023/03/22 08:52:07;;;;;;;0.7;0.6;;;;;;;27.11;26.40137;935.1077;;;;
2023/03/22 08:54:34;;;;;;;1.2;0.8;;;;;;;23.95;27.86426;935.1285;;;;
2023/03/22 08:57:02;;;;;;;1.1;1;;;;;;;25.51;26.01172;935.1306;;;;
2023/03/22 08:59:27;;;;;;;3.1;0.9;;;;;;;27.72;25.04883;935.0641;;;;
2023/03/22 09:01:52;;;;;;;1.1;1;;;;;;;28.23;24.26855;935.0564;;;;
2023/03/22 09:04:18;;;;;;;1.1;0.8;;;;;;;26.85;24.4668;934.9599;;;;
2023/03/22 09:06:45;;;;;;;2.3;0.9;;;;;;;28.41;22.88672;934.9537;;;;
2023/03/22 09:09:10;;;;;;;1.9;0.7;;;;;;;26.07;25.72559;934.8596;;;;
2023/03/22 09:11:40;;;;;;;2.3;1;;;;;;;26;25.80371;934.8596;;;;
2023/03/22 09:14:04;;;;;;;1.1;0.9;;;;;;;26.73;25.52637;934.8962;;;;
2023/03/22 09:16:36;;;;;;;1.1;1;;;;;;;27.49;24.34668;934.8083;;;;
2023/03/22 09:19:06;;;;;;;1;0.9;;;;;;;28.61;22.83789;934.9128;;;;
2023/03/22 09:21:34;;;;;;;1.1;0.8;;;;;;;28.62;22.25586;934.8522;;;;
2023/03/22 09:23:59;;;;;;;0.6;0.6;;;;;;;29.02;21.7041;934.8232;;;;
2023/03/22 09:26:27;;;;;;;1;0.9;;;;;;;28.6;22.4209;934.8276;;;;
2023/03/22 09:28:52;;;;;;;0.8;0.8;;;;;;;26.87;25.49805;934.7872;;;;
2023/03/22 09:31:19;;;;;;;2.5;0.9;;;;;;;28.14;24.08496;934.7586;;;;
2023/03/22 09:33:45;;;;;;;1.8;0.7;;;;;;;28.88;22.875;934.7489;;;;
2023/03/22 09:36:10;;;;;;;2.5;0.7;;;;;;;27.94;23.80078;934.6531;;;;
2023/03/22 09:38:37;;;;;;;1.2;0.7;;;;;;;28.57;22.77637;934.6649;;;;
2023/03/22 09:41:02;;;;;;;1.4;0.8;;;;;;;28.93;22.42578;934.5759;;;;
2023/03/22 09:43:27;;;;;;;0.8;0.6;;;;;;;28.19;22.23438;934.5563;;;;
2023/03/22 09:45:52;;;;;;;0.5;0.5;;;;;;;27.99;22.5918;934.533;;;;
2023/03/22 09:48:17;;;;;;;1.2;0.9;;;;;;;27.56;24.75391;934.4669;;;;
2023/03/22 09:50:42;;;;;;;0.8;0.7;;;;;;;27.72;23.81348;934.452;;;;
2023/03/22 09:53:09;;;;;;;0.5;0.5;;;;;;;27.45;24.17871;934.4428;;;;
2023/03/22 09:55:35;;;;;;;0.6;0.6;;;;;;;26.91;22.25391;934.4127;;;;
2023/03/22 09:57:59;;;;;;;0.8;0.5;;;;;;;26.8;23.42188;934.3979;;;;
2023/03/22 10:00:24;;;;;;;0.8;0.7;;;;;;;26.37;23.45801;934.3786;;;;
2023/03/22 10:02:50;;;;;;;1.4;0.7;;;;;;;26.07;23.39551;934.326;;;;
2023/03/22 10:05:15;;;;;;;1.5;0.5;;;;;;;25.64;23.9873;934.3155;;;;
2023/03/22 10:07:40;;;;;;;0.8;0.7;;;;;;;25.57;24.79883;934.2767;;;;
2023/03/22 10:10:08;;;;;;;0.7;0.6;;;;;;;24.42;25.59473;934.2919;;;;
2023/03/22 10:12:34;;;;;;;0.5;0.5;;;;;;;24.53;25.97852;934.2207;;;;
2023/03/22 10:14:59;;;;;;;1.1;0.6;;;;;;;25.63;24.80273;934.2156;;;;
2023/03/22 10:17:24;;;;;;;0.8;0.7;;;;;;;25.85;23.38379;934.1371;;;;
2023/03/22 10:19:53;;;;;;;2.5;0.8;;;;;;;27.21;22.74316;934.1158;;;;
2023/03/22 10:22:18;;;;;;;0.5;0.5;;;;;;;27.12;22.28809;934.1506;;;;
2023/03/22 10:24:46;;;;;;;0.6;0.6;;;;;;;27.85;22.18164;934.1638;;;;
2023/03/22 10:27:12;;;;;;;1.9;0.9;;;;;;;26.7;22.17285;934.1262;;;;
2023/03/22 10:29:36;;;;;;;0.8;0.6;;;;;;;25.68;23.63477;934.139;;;;
2023/03/22 10:32:02;;;;;;;1;0.8;;;;;;;26.49;23.27441;934.106;;;;
2023/03/22 10:34:29;;;;;;;1;0.8;;;;;;;26.04;22.89648;934.1228;;;;
2023/03/22 10:36:52;;;;;;;0.9;0.7;;;;;;;26.12;22.47461;934.06;;;;
2023/03/22 10:39:22;;;;;;;1.4;0.9;;;;;;;26.58;23.08984;934.0636;;;;
2023/03/22 10:41:47;;;;;;;0.6;0.5;;;;;;;27.13;22.28809;933.9865;;;;
2023/03/22 10:44:12;;;;;;;1.2;0.5;;;;;;;27.06;22.48633;933.9944;;;;
2023/03/22 10:46:42;;;;;;;0.4;0.4;;;;;;;26.68;22.26563;933.9246;;;;
2023/03/22 10:49:07;;;;;;;0.6;0.6;;;;;;;26.5;23.87891;933.8675;;;;
2023/03/22 10:51:36;;;;;;;2;0.6;;;;;;;27.42;22.94336;933.9377;;;;
2023/03/22 10:54:05;;;;;;;1;0.9;;;;;;;27.65;22.36133;933.8671;;;;
2023/03/22 10:56:30;;;;;;;1.1;0.7;;;;;;;27.86;21.64746;933.822;;;;
2023/03/22 10:58:58;;;;;;;1.4;0.7;;;;;;;28.03;21.64453;933.7501;;;;
2023/03/22 11:01:23;;;;;;;0.8;0.6;;;;;;;28.62;21.82715;933.7774;;;;
2023/03/22 11:03:48;;;;;;;1.3;0.6;;;;;;;29.05;21.72949;933.7587;;;;
2023/03/22 11:06:13;;;;;;;1;0.9;;;;;;;30.23;20.28125;933.6791;;;;
2023/03/22 11:08:42;;;;;;;0.6;0.6;;;;;;;30.4;20.05078;933.6242;;;;
2023/03/22 11:11:11;;;;;;;0.7;0.5;;;;;;;29.66;20.17285;933.5444;;;;
2023/03/22 11:13:37;;;;;;;0.6;0.6;;;;;;;30.05;19.84375;933.5587;;;;
2023/03/22 11:16:07;;;;;;;0.8;0.7;;;;;;;30.33;19.19922;933.4783;;;;
2023/03/22 11:18:32;;;;;;;1.1;0.7;;;;;;;29.49;21.92871;933.4997;;;;
2023/03/22 11:20:57;;;;;;;0.8;0.6;;;;;;;28.66;22.25684;933.5302;;;;
2023/03/22 11:23:22;;;;;;;0.6;0.5;;;;;;;29.14;22.67383;933.5051;;;;
2023/03/22 11:25:48;;;;;;;0.9;0.7;;;;;;;28.28;23.35547;933.48;;;;
2023/03/22 11:28:13;;;;;;;0.8;0.6;;;;;;;27.51;22.94727;933.5294;;;;
2023/03/22 11:30:38;;;;;;;1.1;0.5;;;;;;;27.54;24.14844;933.4489;;;;
2023/03/22 11:33:04;;;;;;;0.9;0.8;;;;;;;27.1;23.76855;933.3491;;;;
2023/03/22 11:35:29;;;;;;;0.8;0.6;;;;;;;26.59;24.74902;933.3613;;;;
2023/03/22 11:37:56;;;;;;;0.8;0.7;;;;;;;27.41;22.9668;933.3432;;;;
2023/03/22 11:40:21;;;;;;;0.6;0.6;;;;;;;27.31;23.73242;933.2997;;;;
2023/03/22 11:42:47;;;;;;;0.9;0.7;;;;;;;27.06;23.80273;933.3206;;;;
2023/03/22 11:45:12;;;;;;;1.3;0.5;;;;;;;27.15;24.28125;933.3165;;;;
2023/03/22 11:47:38;;;;;;;2.4;0.8;;;;;;;27.38;24.04395;933.3605;;;;
2023/03/22 11:50:03;;;;;;;0.7;0.7;;;;;;;27.58;24.35254;933.356;;;;
2023/03/22 11:52:28;;;;;;;1.3;0.7;;;;;;;27.93;23.1123;933.2516;;;;
2023/03/22 11:54:53;;;;;;;0.8;0.8;;;;;;;28.09;22.60938;933.2296;;;;
2023/03/22 11:57:22;;;;;;;0.5;0.5;;;;;;;28.7;22.98438;933.193;;;;
2023/03/22 11:59:47;;;;;;;0.9;0.8;;;;;;;27.86;23.75;933.0889;;;;
2023/03/22 12:02:16;;;;;;;0.8;0.8;;;;;;;27.06;25.16602;933.1071;;;;
2023/03/22 12:04:41;;;;;;;1.1;0.7;;;;;;;25.74;26.56934;933.0037;;;;
2023/03/22 12:07:06;;;;;;;0.8;0.7;;;;;;;26.08;25.60742;933.0168;;;;
2023/03/22 12:09:31;;;;;;;1.3;0.7;;;;;;;25.71;27.35938;932.9794;;;;
2023/03/22 12:11:56;;;;;;;3.5;1;;;;;;;25.81;26.59668;933.0195;;;;
2023/03/22 12:14:21;;;;;;;0.7;0.7;;;;;;;26;26.57227;932.9531;;;;
2023/03/22 12:16:46;;;;;;;0.8;0.8;;;;;;;26.18;26.11035;932.9023;;;;
2023/03/22 12:19:11;;;;;;;1.4;0.9;;;;;;;27.1;24.70508;932.9408;;;;
2023/03/22 12:21:37;;;;;;;1.2;1;;;;;;;26.52;25.82227;932.8331;;;;
2023/03/22 12:24:02;;;;;;;1.1;1;;;;;;;27.46;24.90332;932.8427;;;;
2023/03/22 12:26:29;;;;;;;0.9;0.8;;;;;;;27.5;24.37109;932.8339;;;;
2023/03/22 12:29:01;;;;;;;0.8;0.8;;;;;;;27.78;23.95898;932.8678;;;;
2023/03/22 12:31:26;;;;;;;1.2;1;;;;;;;27.51;25.54688;932.7906;;;;
2023/03/22 12:33:51;;;;;;;1.3;1;;;;;;;27.01;25.3291;932.7458;;;;
2023/03/22 12:36:16;;;;;;;1.3;0.9;;;;;;;25.42;27.70703;932.7433;;;;
2023/03/22 12:38:43;;;;;;;1.2;1;;;;;;;25.95;27.11328;932.7498;;;;
2023/03/22 12:41:09;;;;;;;1.4;1.1;;;;;;;26.94;26.26074;932.7075;;;;
2023/03/22 12:43:34;;;;;;;1.8;1;;;;;;;25.84;27.52051;932.6637;;;;
2023/03/22 12:45:59;;;;;;;1.3;1;;;;;;;26.16;27.31543;932.6326;;;;
2023/03/22 12:48:24;;;;;;;1.4;1;;;;;;;24.86;28.10938;932.528;;;;
2023/03/22 12:50:50;;;;;;;2.1;1;;;;;;;25.66;27.50977;932.5997;;;;
2023/03/22 12:53:15;;;;;;;1.6;1.2;;;;;;;26.53;26.27246;932.5208;;;;
2023/03/22 12:55:40;;;;;;;1;0.9;;;;;;;26.83;26.37305;932.4786;;;;
2023/03/22 12:58:05;;;;;;;1.2;1;;;;;;;26.98;26.09766;932.5167;;;;
2023/03/22 13:00:30;;;;;;;1.2;0.8;;;;;;;28.16;24.44336;932.5037;;;;
2023/03/22 13:02:57;;;;;;;2.8;0.9;;;;;;;28.58;24.2041;932.3733;;;;
2023/03/22 13:05:24;;;;;;;1.6;1.2;;;;;;;29.43;23.40332;932.3474;;;;
2023/03/22 13:07:50;;;;;;;1.1;0.8;;;;;;;28.15;24.88184;932.3144;;;;
2023/03/22 13:10:15;;;;;;;1.4;0.9;;;;;;;27.9;25.15332;932.3419;;;;
2023/03/22 13:12:40;;;;;;;2.5;1;;;;;;;28.45;24.12598;932.2317;;;;
2023/03/22 13:15:09;;;;;;;1.7;0.8;;;;;;;28.26;24.55566;932.2156;;;;
2023/03/22 13:17:37;;;;;;;0.9;0.8;;;;;;;27.66;25.15137;932.1856;;;;
2023/03/22 13:20:07;;;;;;;1.2;0.9;;;;;;;27.07;25.86523;932.1838;;;;
2023/03/22 13:22:34;;;;;;;1;0.8;;;;;;;27.28;26.57715;932.062;;;;
2023/03/22 13:24:59;;;;;;;1.2;0.9;;;;;;;27.37;26.16797;932.1303;;;;
2023/03/22 13:27:24;;;;;;;1.7;0.8;;;;;;;26.96;25.98926;932.0995;;;;
2023/03/22 13:29:52;;;;;;;1.5;0.8;;;;;;;27.8;24.81543;932.0325;;;;
2023/03/22 13:32:15;;;;;;;0.9;0.8;;;;;;;27.51;25.90234;932.0813;;;;
2023/03/22 13:34:41;;;;;;;1.6;0.9;;;;;;;28.06;23.85547;932.0446;;;;
2023/03/22 13:37:08;;;;;;;3.8;1.1;;;;;;;26.27;27.23926;932.0331;;;;
2023/03/22 13:39:33;;;;;;;2.9;0.9;;;;;;;26.97;25.72949;932.0133;;;;
2023/03/22 13:42:01;;;;;;;0.7;0.7;;;;;;;26.11;26.86328;931.9796;;;;
2023/03/22 13:44:26;;;;;;;2.7;1;;;;;;;26.22;27.31934;931.9377;;;;
2023/03/22 13:46:51;;;;;;;1.1;0.8;;;;;;;27.45;25.56641;931.9366;;;;
2023/03/22 13:49:16;;;;;;;1.7;0.9;;;;;;;26.31;27.41895;931.904;;;;
2023/03/22 13:51:42;;;;;;;0.8;0.8;;;;;;;25.82;28.80762;931.8668;;;;
2023/03/22 13:54:07;;;;;;;1;0.9;;;;;;;26.19;26.26367;931.8502;;;;
2023/03/22 13:56:38;;;;;;;0.8;0.8;;;;;;;25.85;28.65625;931.8522;;;;
2023/03/22 13:59:04;;;;;;;1;0.9;;;;;;;25.47;27.65137;931.8208;;;;
2023/03/22 14:01:35;;;;;;;4.6;1.6;;;;;;;24.63;29.19141;931.8152;;;;
2023/03/22 14:04:02;;;;;;;1.2;0.9;;;;;;;24.55;29.75195;931.8337;;;;
2023/03/22 14:06:26;;;;;;;1.4;1;;;;;;;24.81;29.72168;931.7642;;;;
2023/03/22 14:08:52;;;;;;;1.1;1;;;;;;;24.5;29.44238;931.7599;;;;
2023/03/22 14:11:19;;;;;;;2.2;1.1;;;;;;;24.4;30.22461;931.7824;;;;
2023/03/22 14:13:42;;;;;;;2;1.3;;;;;;;24.55;29.16211;931.7167;;;;
2023/03/22 14:16:11;;;;;;;1.5;1;;;;;;;23.78;30.8418;931.7742;;;;
2023/03/22 14:18:38;;;;;;;1.3;1.1;;;;;;;22.92;32.33203;931.7493;;;;
2023/03/22 14:21:04;;;;;;;2.9;1.6;;;;;;;22.25;33.75;931.6686;;;;
2023/03/22 14:23:29;;;;;;;1.9;1.1;;;;;;;22.23;32.86816;931.7159;;;;
2023/03/22 14:25:59;;;;;;;1.4;1;;;;;;;21.71;35.03223;931.7183;;;;
2023/03/22 14:28:24;;;;;;;1.9;1.2;;;;;;;21.68;34.05762;931.6518;;;;
2023/03/22 14:30:51;;;;;;;1.5;1.3;;;;;;;21.3;34.19336;931.7429;;;;
2023/03/22 14:33:18;;;;;;;2.2;1.3;;;;;;;21.16;34.77832;931.6664;;;;
2023/03/22 14:35:46;;;;;;;1.6;1.3;;;;;;;20.99;35.56055;931.7119;;;;
2023/03/22 14:38:12;;;;;;;1.6;1.2;;;;;;;21.14;34.21484;931.6682;;;;
2023/03/22 14:40:37;;;;;;;2.3;1.3;;;;;;;21.05;36.52441;931.7067;;;;
2023/03/22 14:43:02;;;;;;;1.4;1.2;;;;;;;20.92;35.47266;931.6373;;;;
2023/03/22 14:45:27;;;;;;;1.5;1.2;;;;;;;20.78;35.6709;931.6961;;;;
2023/03/22 14:47:53;;;;;;;1.8;1.3;;;;;;;20.64;36.73633;931.6505;;;;
2023/03/22 14:50:23;;;;;;;1.2;1.1;;;;;;;20.21;37.65723;931.663;;;;
2023/03/22 14:52:47;;;;;;;1.6;1.2;;;;;;;20.2;36.39551;931.6264;;;;
2023/03/22 14:55:13;;;;;;;3.6;1.5;;;;;;;20.27;36.50586;931.6376;;;;
2023/03/22 14:57:43;;;;;;;2.2;1.2;;;;;;;20.21;36.51367;931.7001;;;;
2023/03/22 15:00:14;;;;;;;2;1.3;;;;;;;19.95;37.59961;931.7573;;;;
2023/03/22 15:02:36;;;;;;;1.9;1.3;;;;;;;19.84;36.27246;931.7317;;;;
2023/03/22 15:05:01;;;;;;;1.2;1.1;;;;;;;19.81;37.15625;931.6903;;;;
2023/03/22 15:07:33;;;;;;;3.7;1.3;;;;;;;19.79;36.6416;931.712;;;;
2023/03/22 15:10:00;;;;;;;1.5;1.2;;;;;;;19.88;36.50879;931.7099;;;;
2023/03/22 15:12:31;;;;;;;1.9;1.1;;;;;;;19.87;37.72168;931.7103;;;;
2023/03/22 15:14:59;;;;;;;3.3;1.6;;;;;;;20;37.30078;931.7491;;;;
2023/03/22 15:17:24;;;;;;;1.3;1;;;;;;;19.78;37.42188;931.7335;;;;
2023/03/22 15:19:51;;;;;;;1.8;1.3;;;;;;;19.43;38.68555;931.7355;;;;
2023/03/22 15:22:16;;;;;;;2.5;1.5;;;;;;;19.38;37.58594;931.7252;;;;
2023/03/22 15:24:41;;;;;;;1.3;1.1;;;;;;;19.21;38.375;931.7316;;;;
2023/03/22 15:27:10;;;;;;;1.9;1.2;;;;;;;18.86;40.04395;931.7742;;;;
2023/03/22 15:29:35;;;;;;;1.8;1.2;;;;;;;18.73;39.91602;931.663;;;;
2023/03/22 15:32:03;;;;;;;1.8;1.3;;;;;;;18.71;39.59961;931.7379;;;;
2023/03/22 15:34:28;;;;;;;2;1.1;;;;;;;18.69;39.71484;931.7617;;;;
2023/03/22 15:36:53;;;;;;;1.8;1.2;;;;;;;18.68;40.07422;931.7847;;;;
2023/03/22 15:39:22;;;;;;;2.3;1.5;;;;;;;18.68;40.41113;931.8228;;;;